< < Back
Terminal Aerodrome Forecast


Current Version              Previous Versions:   1  2  3  4  5  6  7  8  9  

Terminal Aerodrome Forecast

139
FTUS42 KFFC 201144
TAFAHN
TAF
KAHN 201144Z 2012/2112 05003KT P6SM -SHRA FEW035 OVC050
      TEMPO 2013/2015 5SM -SHRA BR BKN035
     FM201500 05005KT P6SM OVC035
     FM202000 08005KT P6SM BKN040
     FM202300 35004KT P6SM SCT050
     FM210700 05004KT 5SM BR OVC025
     FM211100 06005KT 4SM BR OVC004=



Latest METAR

278
SAUS70 KWBC 201800
MTRAHN
METAR KAHN 201751Z 05004KT 4SM BR OVC006 09/07 A3018 RMK AO2 SLP222
60001 T00890072 10094 20067 58011


USA.gov is the U.S. government's official web portal to all federal, state and local government web resources and services.